sensor_id;sensor_type;location;lat;lon;timestamp;P1;durP1;ratioP1;P2;durP2;ratioP2
69185;SDS011;56298;49.246;9.410;2023-07-29T00:01:36;12.57;;;5.70;;
69185;SDS011;56298;49.246;9.410;2023-07-29T00:04:02;10.20;;;5.78;;
69185;SDS011;56298;49.246;9.410;2023-07-29T00:06:27;50.23;;;6.90;;
69185;SDS011;56298;49.246;9.410;2023-07-29T00:08:52;28.33;;;5.90;;
69185;SDS011;56298;49.246;9.410;2023-07-29T00:11:18;18.73;;;5.50;;
69185;SDS011;56298;49.246;9.410;2023-07-29T00:13:43;52.83;;;6.90;;
69185;SDS011;56298;49.246;9.410;2023-07-29T00:16:09;21.27;;;6.63;;
69185;SDS011;56298;49.246;9.410;2023-07-29T00:18:34;12.53;;;6.10;;
69185;SDS011;56298;49.246;9.410;2023-07-29T00:20:59;14.50;;;6.20;;
69185;SDS011;56298;49.246;9.410;2023-07-29T00:23:24;10.52;;;5.53;;
69185;SDS011;56298;49.246;9.410;2023-07-29T00:25:50;10.70;;;5.30;;
69185;SDS011;56298;49.246;9.410;2023-07-29T00:28:15;12.43;;;5.10;;
69185;SDS011;56298;49.246;9.410;2023-07-29T00:30:40;10.80;;;5.30;;
69185;SDS011;56298;49.246;9.410;2023-07-29T00:33:06;8.80;;;4.40;;
69185;SDS011;56298;49.246;9.410;2023-07-29T00:35:31;7.67;;;4.30;;
69185;SDS011;56298;49.246;9.410;2023-07-29T00:37:56;9.40;;;4.70;;
69185;SDS011;56298;49.246;9.410;2023-07-29T00:40:22;9.03;;;4.67;;
69185;SDS011;56298;49.246;9.410;2023-07-29T00:42:47;7.68;;;4.50;;
69185;SDS011;56298;49.246;9.410;2023-07-29T00:45:14;8.27;;;4.30;;
69185;SDS011;56298;49.246;9.410;2023-07-29T00:47:39;10.77;;;4.87;;
69185;SDS011;56298;49.246;9.410;2023-07-29T00:50:06;6.97;;;3.90;;
69185;SDS011;56298;49.246;9.410;2023-07-29T00:52:32;10.32;;;4.43;;
69185;SDS011;56298;49.246;9.410;2023-07-29T00:54:57;9.33;;;4.77;;
69185;SDS011;56298;49.246;9.410;2023-07-29T00:57:23;8.27;;;4.57;;
69185;SDS011;56298;49.246;9.410;2023-07-29T00:59:50;10.20;;;4.22;;
69185;SDS011;56298;49.246;9.410;2023-07-29T01:02:16;7.93;;;4.32;;
69185;SDS011;56298;49.246;9.410;2023-07-29T01:04:41;8.43;;;4.35;;
69185;SDS011;56298;49.246;9.410;2023-07-29T01:10:02;7.85;;;4.72;;
69185;SDS011;56298;49.246;9.410;2023-07-29T01:15:24;9.05;;;4.95;;
69185;SDS011;56298;49.246;9.410;2023-07-29T01:18:15;7.93;;;4.82;;
69185;SDS011;56298;49.246;9.410;2023-07-29T01:20:49;8.40;;;4.80;;
69185;SDS011;56298;49.246;9.410;2023-07-29T01:23:24;8.02;;;4.50;;
69185;SDS011;56298;49.246;9.410;2023-07-29T01:25:50;8.75;;;4.40;;
69185;SDS011;56298;49.246;9.410;2023-07-29T01:28:15;8.68;;;4.38;;
69185;SDS011;56298;49.246;9.410;2023-07-29T01:30:41;8.63;;;4.40;;
69185;SDS011;56298;49.246;9.410;2023-07-29T01:33:10;9.15;;;4.30;;
69185;SDS011;56298;49.246;9.410;2023-07-29T01:38:43;9.30;;;4.70;;
69185;SDS011;56298;49.246;9.410;2023-07-29T01:41:09;9.02;;;4.13;;
69185;SDS011;56298;49.246;9.410;2023-07-29T01:43:36;9.95;;;4.53;;
69185;SDS011;56298;49.246;9.410;2023-07-29T01:46:07;7.70;;;4.00;;
69185;SDS011;56298;49.246;9.410;2023-07-29T01:48:34;7.10;;;3.93;;
69185;SDS011;56298;49.246;9.410;2023-07-29T01:51:00;8.50;;;3.97;;
69185;SDS011;56298;49.246;9.410;2023-07-29T01:53:25;9.57;;;3.90;;
69185;SDS011;56298;49.246;9.410;2023-07-29T01:55:50;7.97;;;4.23;;
69185;SDS011;56298;49.246;9.410;2023-07-29T01:58:15;9.03;;;4.50;;
69185;SDS011;56298;49.246;9.410;2023-07-29T02:00:41;8.37;;;4.30;;
69185;SDS011;56298;49.246;9.410;2023-07-29T02:03:06;10.07;;;4.67;;
69185;SDS011;56298;49.246;9.410;2023-07-29T02:05:31;10.77;;;4.47;;
69185;SDS011;56298;49.246;9.410;2023-07-29T02:07:56;8.73;;;3.73;;
69185;SDS011;56298;49.246;9.410;2023-07-29T02:10:22;7.57;;;3.90;;
69185;SDS011;56298;49.246;9.410;2023-07-29T02:12:47;8.57;;;3.90;;
69185;SDS011;56298;49.246;9.410;2023-07-29T02:15:12;10.93;;;4.40;;
69185;SDS011;56298;49.246;9.410;2023-07-29T02:17:39;7.70;;;3.75;;
69185;SDS011;56298;49.246;9.410;2023-07-29T02:20:06;9.52;;;3.85;;
69185;SDS011;56298;49.246;9.410;2023-07-29T02:22:32;7.00;;;3.78;;
69185;SDS011;56298;49.246;9.410;2023-07-29T02:24:57;9.20;;;4.13;;
69185;SDS011;56298;49.246;9.410;2023-07-29T02:27:22;6.53;;;3.93;;
69185;SDS011;56298;49.246;9.410;2023-07-29T02:29:50;7.28;;;3.78;;
69185;SDS011;56298;49.246;9.410;2023-07-29T02:32:15;8.20;;;4.20;;
69185;SDS011;56298;49.246;9.410;2023-07-29T02:34:41;5.97;;;3.33;;
69185;SDS011;56298;49.246;9.410;2023-07-29T02:37:06;7.93;;;3.17;;
69185;SDS011;56298;49.246;9.410;2023-07-29T02:39:31;8.57;;;3.20;;
69185;SDS011;56298;49.246;9.410;2023-07-29T02:41:56;8.33;;;3.57;;
69185;SDS011;56298;49.246;9.410;2023-07-29T02:44:23;8.18;;;3.47;;
69185;SDS011;56298;49.246;9.410;2023-07-29T02:46:48;5.87;;;3.23;;
69185;SDS011;56298;49.246;9.410;2023-07-29T02:49:14;7.00;;;3.40;;
69185;SDS011;56298;49.246;9.410;2023-07-29T02:51:39;9.00;;;4.03;;
69185;SDS011;56298;49.246;9.410;2023-07-29T02:54:04;8.20;;;3.87;;
69185;SDS011;56298;49.246;9.410;2023-07-29T02:56:29;7.87;;;3.90;;
69185;SDS011;56298;49.246;9.410;2023-07-29T02:58:55;7.90;;;3.40;;
69185;SDS011;56298;49.246;9.410;2023-07-29T03:01:21;7.10;;;3.30;;
69185;SDS011;56298;49.246;9.410;2023-07-29T03:03:46;8.82;;;3.70;;
69185;SDS011;56298;49.246;9.410;2023-07-29T03:06:13;9.40;;;3.63;;
69185;SDS011;56298;49.246;9.410;2023-07-29T03:08:39;9.13;;;3.90;;
69185;SDS011;56298;49.246;9.410;2023-07-29T03:11:05;11.23;;;3.60;;
69185;SDS011;56298;49.246;9.410;2023-07-29T03:13:32;8.25;;;3.25;;
69185;SDS011;56298;49.246;9.410;2023-07-29T03:16:07;8.10;;;3.80;;
69185;SDS011;56298;49.246;9.410;2023-07-29T03:18:39;7.28;;;3.30;;
69185;SDS011;56298;49.246;9.410;2023-07-29T03:21:06;7.53;;;3.30;;
69185;SDS011;56298;49.246;9.410;2023-07-29T03:23:32;8.50;;;3.50;;
69185;SDS011;56298;49.246;9.410;2023-07-29T03:25:58;7.63;;;3.83;;
69185;SDS011;56298;49.246;9.410;2023-07-29T03:28:32;8.27;;;3.80;;
69185;SDS011;56298;49.246;9.410;2023-07-29T03:30:58;8.27;;;4.13;;
69185;SDS011;56298;49.246;9.410;2023-07-29T03:33:24;9.40;;;4.17;;
69185;SDS011;56298;49.246;9.410;2023-07-29T03:35:50;8.07;;;3.67;;
69185;SDS011;56298;49.246;9.410;2023-07-29T03:38:16;7.73;;;4.20;;
69185;SDS011;56298;49.246;9.410;2023-07-29T03:40:41;12.50;;;4.60;;
69185;SDS011;56298;49.246;9.410;2023-07-29T03:43:07;9.55;;;4.80;;
69185;SDS011;56298;49.246;9.410;2023-07-29T03:45:33;11.40;;;4.57;;
69185;SDS011;56298;49.246;9.410;2023-07-29T03:47:58;8.30;;;4.50;;
69185;SDS011;56298;49.246;9.410;2023-07-29T03:50:24;7.47;;;4.30;;
69185;SDS011;56298;49.246;9.410;2023-07-29T03:52:51;7.20;;;3.80;;
69185;SDS011;56298;49.246;9.410;2023-07-29T03:55:16;7.70;;;3.80;;
69185;SDS011;56298;49.246;9.410;2023-07-29T03:57:41;8.88;;;4.25;;
69185;SDS011;56298;49.246;9.410;2023-07-29T04:00:07;8.87;;;3.60;;
69185;SDS011;56298;49.246;9.410;2023-07-29T04:02:33;7.93;;;3.72;;
69185;SDS011;56298;49.246;9.410;2023-07-29T04:04:59;8.97;;;3.80;;
69185;SDS011;56298;49.246;9.410;2023-07-29T04:07:24;7.07;;;3.10;;
69185;SDS011;56298;49.246;9.410;2023-07-29T04:09:49;7.40;;;3.30;;
69185;SDS011;56298;49.246;9.410;2023-07-29T04:12:15;8.10;;;2.83;;
69185;SDS011;56298;49.246;9.410;2023-07-29T04:14:40;8.17;;;3.37;;
69185;SDS011;56298;49.246;9.410;2023-07-29T04:17:06;7.23;;;3.47;;
69185;SDS011;56298;49.246;9.410;2023-07-29T04:19:32;7.00;;;3.53;;
69185;SDS011;56298;49.246;9.410;2023-07-29T04:21:57;6.63;;;3.40;;
69185;SDS011;56298;49.246;9.410;2023-07-29T04:24:22;7.63;;;4.37;;
69185;SDS011;56298;49.246;9.410;2023-07-29T04:26:48;7.33;;;4.37;;
69185;SDS011;56298;49.246;9.410;2023-07-29T04:29:13;8.98;;;4.25;;
69185;SDS011;56298;49.246;9.410;2023-07-29T04:31:39;8.30;;;4.17;;
69185;SDS011;56298;49.246;9.410;2023-07-29T04:34:04;7.10;;;4.00;;
69185;SDS011;56298;49.246;9.410;2023-07-29T04:36:30;10.23;;;4.43;;
69185;SDS011;56298;49.246;9.410;2023-07-29T04:38:55;7.40;;;4.47;;
69185;SDS011;56298;49.246;9.410;2023-07-29T04:41:20;6.90;;;3.80;;
69185;SDS011;56298;49.246;9.410;2023-07-29T04:43:46;6.37;;;3.60;;
69185;SDS011;56298;49.246;9.410;2023-07-29T04:46:11;6.97;;;3.90;;
69185;SDS011;56298;49.246;9.410;2023-07-29T04:48:36;8.30;;;3.93;;
69185;SDS011;56298;49.246;9.410;2023-07-29T04:51:01;7.80;;;3.70;;
69185;SDS011;56298;49.246;9.410;2023-07-29T04:53:27;7.90;;;3.80;;
69185;SDS011;56298;49.246;9.410;2023-07-29T04:55:52;8.67;;;3.93;;
69185;SDS011;56298;49.246;9.410;2023-07-29T04:58:17;8.13;;;3.97;;
69185;SDS011;56298;49.246;9.410;2023-07-29T05:00:42;6.15;;;3.60;;
69185;SDS011;56298;49.246;9.410;2023-07-29T05:03:08;9.40;;;3.47;;
69185;SDS011;56298;49.246;9.410;2023-07-29T05:05:33;8.27;;;3.72;;
69185;SDS011;56298;49.246;9.410;2023-07-29T05:07:58;6.97;;;3.80;;
69185;SDS011;56298;49.246;9.410;2023-07-29T05:10:24;8.13;;;3.70;;
69185;SDS011;56298;49.246;9.410;2023-07-29T05:12:50;6.80;;;3.90;;
69185;SDS011;56298;49.246;9.410;2023-07-29T05:15:18;9.25;;;3.90;;
69185;SDS011;56298;49.246;9.410;2023-07-29T05:17:43;12.73;;;4.70;;
69185;SDS011;56298;49.246;9.410;2023-07-29T05:20:09;11.03;;;4.70;;
69185;SDS011;56298;49.246;9.410;2023-07-29T05:22:38;8.13;;;3.88;;
69185;SDS011;56298;49.246;9.410;2023-07-29T05:25:03;7.40;;;3.00;;
69185;SDS011;56298;49.246;9.410;2023-07-29T05:27:30;8.90;;;2.92;;
69185;SDS011;56298;49.246;9.410;2023-07-29T05:29:56;5.83;;;2.77;;
69185;SDS011;56298;49.246;9.410;2023-07-29T05:34:56;17.25;;;3.45;;
69185;SDS011;56298;49.246;9.410;2023-07-29T05:37:21;7.57;;;2.50;;
69185;SDS011;56298;49.246;9.410;2023-07-29T05:39:49;12.43;;;2.93;;
69185;SDS011;56298;49.246;9.410;2023-07-29T05:42:15;7.88;;;2.58;;
69185;SDS011;56298;49.246;9.410;2023-07-29T05:54:03;6.90;;;2.47;;
69185;SDS011;56298;49.246;9.410;2023-07-29T05:56:28;8.70;;;2.80;;
69185;SDS011;56298;49.246;9.410;2023-07-29T05:58:54;6.90;;;2.63;;
69185;SDS011;56298;49.246;9.410;2023-07-29T06:01:20;11.37;;;2.40;;
69185;SDS011;56298;49.246;9.410;2023-07-29T06:03:46;8.18;;;2.50;;
69185;SDS011;56298;49.246;9.410;2023-07-29T06:06:12;7.77;;;2.17;;
69185;SDS011;56298;49.246;9.410;2023-07-29T06:08:37;7.50;;;2.20;;
69185;SDS011;56298;49.246;9.410;2023-07-29T06:11:02;6.17;;;2.10;;
69185;SDS011;56298;49.246;9.410;2023-07-29T06:13:27;7.30;;;2.00;;
69185;SDS011;56298;49.246;9.410;2023-07-29T06:15:53;6.15;;;2.10;;
69185;SDS011;56298;49.246;9.410;2023-07-29T06:18:19;6.47;;;2.10;;
69185;SDS011;56298;49.246;9.410;2023-07-29T06:20:44;6.80;;;2.10;;
69185;SDS011;56298;49.246;9.410;2023-07-29T06:23:10;7.40;;;2.53;;
69185;SDS011;56298;49.246;9.410;2023-07-29T06:25:35;5.53;;;1.90;;
69185;SDS011;56298;49.246;9.410;2023-07-29T06:28:00;5.87;;;2.10;;
69185;SDS011;56298;49.246;9.410;2023-07-29T06:30:25;4.93;;;1.87;;
69185;SDS011;56298;49.246;9.410;2023-07-29T06:32:51;6.30;;;1.70;;
69185;SDS011;56298;49.246;9.410;2023-07-29T06:35:16;7.73;;;2.60;;
69185;SDS011;56298;49.246;9.410;2023-07-29T06:37:41;8.13;;;2.60;;
69185;SDS011;56298;49.246;9.410;2023-07-29T06:40:07;5.10;;;1.80;;
69185;SDS011;56298;49.246;9.410;2023-07-29T06:42:32;4.88;;;1.80;;
69185;SDS011;56298;49.246;9.410;2023-07-29T06:44:58;4.95;;;1.85;;
69185;SDS011;56298;49.246;9.410;2023-07-29T06:47:23;5.40;;;1.83;;
69185;SDS011;56298;49.246;9.410;2023-07-29T06:49:48;5.72;;;1.98;;
69185;SDS011;56298;49.246;9.410;2023-07-29T06:52:13;5.63;;;1.90;;
69185;SDS011;56298;49.246;9.410;2023-07-29T06:54:39;4.90;;;1.77;;
69185;SDS011;56298;49.246;9.410;2023-07-29T06:57:04;4.83;;;1.80;;
69185;SDS011;56298;49.246;9.410;2023-07-29T06:59:30;5.38;;;1.95;;
69185;SDS011;56298;49.246;9.410;2023-07-29T07:01:55;5.10;;;1.80;;
69185;SDS011;56298;49.246;9.410;2023-07-29T07:04:20;6.77;;;1.90;;
69185;SDS011;56298;49.246;9.410;2023-07-29T07:06:46;6.77;;;2.13;;
69185;SDS011;56298;49.246;9.410;2023-07-29T07:09:11;5.53;;;1.80;;
69185;SDS011;56298;49.246;9.410;2023-07-29T07:11:36;5.60;;;1.80;;
69185;SDS011;56298;49.246;9.410;2023-07-29T07:14:02;5.67;;;1.90;;
69185;SDS011;56298;49.246;9.410;2023-07-29T07:16:27;7.93;;;2.23;;
69185;SDS011;56298;49.246;9.410;2023-07-29T07:18:55;6.40;;;1.80;;
69185;SDS011;56298;49.246;9.410;2023-07-29T07:21:20;5.90;;;1.70;;
69185;SDS011;56298;49.246;9.410;2023-07-29T07:23:45;5.72;;;2.00;;
69185;SDS011;56298;49.246;9.410;2023-07-29T07:26:10;4.93;;;1.80;;
69185;SDS011;56298;49.246;9.410;2023-07-29T07:28:38;4.57;;;1.63;;
69185;SDS011;56298;49.246;9.410;2023-07-29T07:31:03;4.85;;;1.80;;
69185;SDS011;56298;49.246;9.410;2023-07-29T07:33:29;6.13;;;1.90;;
69185;SDS011;56298;49.246;9.410;2023-07-29T07:35:54;5.27;;;1.70;;
69185;SDS011;56298;49.246;9.410;2023-07-29T07:38:19;6.17;;;1.87;;
69185;SDS011;56298;49.246;9.410;2023-07-29T07:40:55;6.17;;;1.90;;
69185;SDS011;56298;49.246;9.410;2023-07-29T07:43:21;4.30;;;1.80;;
69185;SDS011;56298;49.246;9.410;2023-07-29T07:45:46;6.82;;;1.95;;
69185;SDS011;56298;49.246;9.410;2023-07-29T07:48:11;6.50;;;2.03;;
69185;SDS011;56298;49.246;9.410;2023-07-29T07:50:38;5.28;;;1.70;;
69185;SDS011;56298;49.246;9.410;2023-07-29T07:53:03;4.37;;;1.60;;
69185;SDS011;56298;49.246;9.410;2023-07-29T07:55:29;6.37;;;2.50;;
69185;SDS011;56298;49.246;9.410;2023-07-29T07:57:54;7.53;;;3.30;;
69185;SDS011;56298;49.246;9.410;2023-07-29T08:00:20;6.72;;;2.65;;
69185;SDS011;56298;49.246;9.410;2023-07-29T08:02:45;5.27;;;1.87;;
69185;SDS011;56298;49.246;9.410;2023-07-29T08:05:10;4.90;;;1.30;;
69185;SDS011;56298;49.246;9.410;2023-07-29T08:07:36;4.60;;;1.43;;
69185;SDS011;56298;49.246;9.410;2023-07-29T08:10:01;3.80;;;1.40;;
69185;SDS011;56298;49.246;9.410;2023-07-29T08:12:26;3.83;;;1.20;;
69185;SDS011;56298;49.246;9.410;2023-07-29T08:14:51;5.40;;;1.50;;
69185;SDS011;56298;49.246;9.410;2023-07-29T08:17:17;4.17;;;1.50;;
69185;SDS011;56298;49.246;9.410;2023-07-29T08:19:42;3.93;;;1.40;;
69185;SDS011;56298;49.246;9.410;2023-07-29T08:22:07;4.87;;;1.50;;
69185;SDS011;56298;49.246;9.410;2023-07-29T08:24:32;6.03;;;1.40;;
69185;SDS011;56298;49.246;9.410;2023-07-29T08:26:59;5.97;;;1.20;;
69185;SDS011;56298;49.246;9.410;2023-07-29T08:29:24;5.20;;;1.20;;
69185;SDS011;56298;49.246;9.410;2023-07-29T08:31:49;4.87;;;1.30;;
69185;SDS011;56298;49.246;9.410;2023-07-29T08:34:16;4.20;;;1.10;;
69185;SDS011;56298;49.246;9.410;2023-07-29T08:36:41;4.70;;;1.10;;
69185;SDS011;56298;49.246;9.410;2023-07-29T08:39:06;4.17;;;1.40;;
69185;SDS011;56298;49.246;9.410;2023-07-29T08:41:37;5.80;;;1.43;;
69185;SDS011;56298;49.246;9.410;2023-07-29T08:46:42;4.75;;;1.30;;
69185;SDS011;56298;49.246;9.410;2023-07-29T08:49:08;4.87;;;1.67;;
69185;SDS011;56298;49.246;9.410;2023-07-29T08:51:34;5.00;;;1.30;;
69185;SDS011;56298;49.246;9.410;2023-07-29T08:53:59;5.30;;;1.10;;
69185;SDS011;56298;49.246;9.410;2023-07-29T08:56:25;3.47;;;1.00;;
69185;SDS011;56298;49.246;9.410;2023-07-29T08:58:50;5.23;;;1.33;;
69185;SDS011;56298;49.246;9.410;2023-07-29T09:01:17;4.32;;;1.30;;
69185;SDS011;56298;49.246;9.410;2023-07-29T09:03:42;3.50;;;1.03;;
69185;SDS011;56298;49.246;9.410;2023-07-29T09:06:08;4.77;;;1.13;;
69185;SDS011;56298;49.246;9.410;2023-07-29T09:08:33;3.97;;;1.20;;
69185;SDS011;56298;49.246;9.410;2023-07-29T09:10:59;4.28;;;1.20;;
69185;SDS011;56298;49.246;9.410;2023-07-29T09:13:24;4.17;;;1.27;;
69185;SDS011;56298;49.246;9.410;2023-07-29T09:15:53;4.00;;;1.10;;
69185;SDS011;56298;49.246;9.410;2023-07-29T09:18:20;4.80;;;1.35;;
69185;SDS011;56298;49.246;9.410;2023-07-29T09:20:46;4.03;;;1.37;;
69185;SDS011;56298;49.246;9.410;2023-07-29T09:23:13;4.13;;;1.25;;
69185;SDS011;56298;49.246;9.410;2023-07-29T09:25:38;3.27;;;1.10;;
69185;SDS011;56298;49.246;9.410;2023-07-29T09:28:11;5.83;;;1.27;;
69185;SDS011;56298;49.246;9.410;2023-07-29T09:30:38;4.10;;;1.13;;
69185;SDS011;56298;49.246;9.410;2023-07-29T09:33:08;5.05;;;1.33;;
69185;SDS011;56298;49.246;9.410;2023-07-29T09:35:35;4.68;;;1.20;;
69185;SDS011;56298;49.246;9.410;2023-07-29T09:38:02;4.85;;;1.30;;
69185;SDS011;56298;49.246;9.410;2023-07-29T09:40:33;4.93;;;1.17;;
69185;SDS011;56298;49.246;9.410;2023-07-29T09:43:02;3.83;;;1.13;;
69185;SDS011;56298;49.246;9.410;2023-07-29T09:45:28;4.50;;;1.10;;
69185;SDS011;56298;49.246;9.410;2023-07-29T09:47:54;3.63;;;1.00;;
69185;SDS011;56298;49.246;9.410;2023-07-29T09:50:25;3.80;;;1.30;;
69185;SDS011;56298;49.246;9.410;2023-07-29T09:52:51;3.92;;;1.30;;
69185;SDS011;56298;49.246;9.410;2023-07-29T09:55:18;3.53;;;0.90;;
69185;SDS011;56298;49.246;9.410;2023-07-29T09:57:44;6.03;;;1.10;;
69185;SDS011;56298;49.246;9.410;2023-07-29T10:00:13;4.27;;;1.20;;
69185;SDS011;56298;49.246;9.410;2023-07-29T10:02:39;3.50;;;1.00;;
69185;SDS011;56298;49.246;9.410;2023-07-29T10:05:06;4.30;;;1.17;;
69185;SDS011;56298;49.246;9.410;2023-07-29T10:07:33;4.63;;;1.23;;
69185;SDS011;56298;49.246;9.410;2023-07-29T10:09:59;8.05;;;1.13;;
69185;SDS011;56298;49.246;9.410;2023-07-29T10:12:26;4.70;;;1.20;;
69185;SDS011;56298;49.246;9.410;2023-07-29T10:14:52;4.88;;;1.20;;
69185;SDS011;56298;49.246;9.410;2023-07-29T10:17:17;4.17;;;1.20;;
69185;SDS011;56298;49.246;9.410;2023-07-29T10:19:45;5.20;;;1.23;;
69185;SDS011;56298;49.246;9.410;2023-07-29T10:22:12;3.53;;;1.10;;
69185;SDS011;56298;49.246;9.410;2023-07-29T10:24:40;3.35;;;0.90;;
69185;SDS011;56298;49.246;9.410;2023-07-29T10:27:08;4.53;;;0.93;;
69185;SDS011;56298;49.246;9.410;2023-07-29T10:29:38;3.72;;;1.10;;
69185;SDS011;56298;49.246;9.410;2023-07-29T10:32:04;4.03;;;1.08;;
69185;SDS011;56298;49.246;9.410;2023-07-29T10:34:31;3.33;;;0.93;;
69185;SDS011;56298;49.246;9.410;2023-07-29T10:36:59;4.13;;;1.10;;
69185;SDS011;56298;49.246;9.410;2023-07-29T10:39:25;4.43;;;1.00;;
69185;SDS011;56298;49.246;9.410;2023-07-29T10:41:58;3.80;;;1.10;;
69185;SDS011;56298;49.246;9.410;2023-07-29T10:47:38;3.90;;;1.00;;
69185;SDS011;56298;49.246;9.410;2023-07-29T10:49:58;3.40;;;1.10;;
69185;SDS011;56298;49.246;9.410;2023-07-29T10:52:42;3.33;;;1.10;;
69185;SDS011;56298;49.246;9.410;2023-07-29T10:55:22;4.43;;;1.20;;
69185;SDS011;56298;49.246;9.410;2023-07-29T10:57:50;3.10;;;1.00;;
69185;SDS011;56298;49.246;9.410;2023-07-29T11:00:15;3.43;;;1.10;;
69185;SDS011;56298;49.246;9.410;2023-07-29T11:02:46;4.30;;;1.25;;
69185;SDS011;56298;49.246;9.410;2023-07-29T11:05:24;3.38;;;1.08;;
69185;SDS011;56298;49.246;9.410;2023-07-29T11:07:49;3.47;;;1.27;;
69185;SDS011;56298;49.246;9.410;2023-07-29T11:10:15;3.53;;;1.03;;
69185;SDS011;56298;49.246;9.410;2023-07-29T11:12:50;4.30;;;1.10;;
69185;SDS011;56298;49.246;9.410;2023-07-29T11:15:17;3.40;;;1.20;;
69185;SDS011;56298;49.246;9.410;2023-07-29T11:20:16;3.80;;;0.98;;
69185;SDS011;56298;49.246;9.410;2023-07-29T11:22:44;3.65;;;1.23;;
69185;SDS011;56298;49.246;9.410;2023-07-29T11:25:11;4.07;;;1.25;;
69185;SDS011;56298;49.246;9.410;2023-07-29T11:27:38;3.15;;;1.05;;
69185;SDS011;56298;49.246;9.410;2023-07-29T11:30:04;3.60;;;1.35;;
69185;SDS011;56298;49.246;9.410;2023-07-29T11:32:31;3.33;;;1.20;;
69185;SDS011;56298;49.246;9.410;2023-07-29T11:35:01;4.95;;;1.45;;
69185;SDS011;56298;49.246;9.410;2023-07-29T11:37:41;4.03;;;1.20;;
69185;SDS011;56298;49.246;9.410;2023-07-29T11:40:08;3.60;;;1.40;;
69185;SDS011;56298;49.246;9.410;2023-07-29T11:42:35;5.37;;;1.33;;
69185;SDS011;56298;49.246;9.410;2023-07-29T11:45:02;4.10;;;1.40;;
69185;SDS011;56298;49.246;9.410;2023-07-29T11:47:28;3.60;;;1.30;;
69185;SDS011;56298;49.246;9.410;2023-07-29T11:49:54;3.92;;;1.52;;
69185;SDS011;56298;49.246;9.410;2023-07-29T11:52:22;3.75;;;1.35;;
69185;SDS011;56298;49.246;9.410;2023-07-29T11:54:48;4.03;;;1.40;;
69185;SDS011;56298;49.246;9.410;2023-07-29T11:57:14;3.53;;;1.30;;
69185;SDS011;56298;49.246;9.410;2023-07-29T11:59:40;4.47;;;1.30;;
69185;SDS011;56298;49.246;9.410;2023-07-29T12:02:11;3.20;;;1.20;;
69185;SDS011;56298;49.246;9.410;2023-07-29T12:04:38;3.80;;;0.90;;
69185;SDS011;56298;49.246;9.410;2023-07-29T12:07:05;14.95;;;1.52;;
69185;SDS011;56298;49.246;9.410;2023-07-29T12:09:31;4.00;;;1.00;;
69185;SDS011;56298;49.246;9.410;2023-07-29T12:11:56;4.67;;;0.90;;
69185;SDS011;56298;49.246;9.410;2023-07-29T12:14:25;5.60;;;0.93;;
69185;SDS011;56298;49.246;9.410;2023-07-29T12:16:51;3.70;;;0.95;;
69185;SDS011;56298;49.246;9.410;2023-07-29T12:19:17;3.50;;;0.97;;
69185;SDS011;56298;49.246;9.410;2023-07-29T12:21:43;3.83;;;0.93;;
69185;SDS011;56298;49.246;9.410;2023-07-29T12:24:09;3.47;;;1.03;;
69185;SDS011;56298;49.246;9.410;2023-07-29T12:26:35;3.67;;;1.10;;
69185;SDS011;56298;49.246;9.410;2023-07-29T12:29:14;3.35;;;1.15;;
69185;SDS011;56298;49.246;9.410;2023-07-29T12:31:41;4.70;;;1.02;;
69185;SDS011;56298;49.246;9.410;2023-07-29T12:34:07;3.33;;;0.98;;
69185;SDS011;56298;49.246;9.410;2023-07-29T12:42:04;4.20;;;1.10;;
69185;SDS011;56298;49.246;9.410;2023-07-29T12:44:31;4.40;;;1.10;;
69185;SDS011;56298;49.246;9.410;2023-07-29T12:46:57;3.58;;;1.20;;
69185;SDS011;56298;49.246;9.410;2023-07-29T12:49:23;4.10;;;1.23;;
69185;SDS011;56298;49.246;9.410;2023-07-29T12:51:50;3.75;;;1.17;;
69185;SDS011;56298;49.246;9.410;2023-07-29T12:54:15;4.40;;;1.10;;
69185;SDS011;56298;49.246;9.410;2023-07-29T12:56:40;3.40;;;1.20;;
69185;SDS011;56298;49.246;9.410;2023-07-29T12:59:06;4.50;;;1.27;;
69185;SDS011;56298;49.246;9.410;2023-07-29T13:01:31;3.87;;;1.23;;
69185;SDS011;56298;49.246;9.410;2023-07-29T13:03:56;3.23;;;1.00;;
69185;SDS011;56298;49.246;9.410;2023-07-29T13:06:22;3.53;;;1.20;;
69185;SDS011;56298;49.246;9.410;2023-07-29T13:08:47;4.63;;;1.20;;
69185;SDS011;56298;49.246;9.410;2023-07-29T13:11:14;3.90;;;1.17;;
69185;SDS011;56298;49.246;9.410;2023-07-29T13:13:39;3.20;;;0.95;;
69185;SDS011;56298;49.246;9.410;2023-07-29T13:16:05;3.40;;;1.10;;
69185;SDS011;56298;49.246;9.410;2023-07-29T13:18:31;3.85;;;1.08;;
69185;SDS011;56298;49.246;9.410;2023-07-29T13:20:56;3.40;;;1.20;;
69185;SDS011;56298;49.246;9.410;2023-07-29T13:23:22;4.10;;;1.48;;
69185;SDS011;56298;49.246;9.410;2023-07-29T13:25:47;3.60;;;1.30;;
69185;SDS011;56298;49.246;9.410;2023-07-29T13:28:12;4.00;;;1.17;;
69185;SDS011;56298;49.246;9.410;2023-07-29T13:30:38;3.23;;;0.90;;
69185;SDS011;56298;49.246;9.410;2023-07-29T13:33:06;4.85;;;1.40;;
69185;SDS011;56298;49.246;9.410;2023-07-29T13:35:32;3.38;;;1.20;;
69185;SDS011;56298;49.246;9.410;2023-07-29T13:37:58;3.57;;;1.30;;
69185;SDS011;56298;49.246;9.410;2023-07-29T13:40:23;3.70;;;1.15;;
69185;SDS011;56298;49.246;9.410;2023-07-29T13:42:48;3.13;;;1.03;;
69185;SDS011;56298;49.246;9.410;2023-07-29T13:45:14;3.87;;;1.10;;
69185;SDS011;56298;49.246;9.410;2023-07-29T13:47:39;3.47;;;1.00;;
69185;SDS011;56298;49.246;9.410;2023-07-29T13:50:04;4.83;;;1.30;;
69185;SDS011;56298;49.246;9.410;2023-07-29T13:52:32;3.30;;;1.20;;
69185;SDS011;56298;49.246;9.410;2023-07-29T13:54:57;3.60;;;1.27;;
69185;SDS011;56298;49.246;9.410;2023-07-29T13:57:23;3.60;;;1.20;;
69185;SDS011;56298;49.246;9.410;2023-07-29T13:59:49;4.20;;;1.50;;
69185;SDS011;56298;49.246;9.410;2023-07-29T14:02:14;4.13;;;1.10;;
69185;SDS011;56298;49.246;9.410;2023-07-29T14:04:40;3.80;;;1.30;;
69185;SDS011;56298;49.246;9.410;2023-07-29T14:07:05;4.20;;;1.13;;
69185;SDS011;56298;49.246;9.410;2023-07-29T14:09:30;4.00;;;1.23;;
69185;SDS011;56298;49.246;9.410;2023-07-29T14:11:56;4.07;;;1.40;;
69185;SDS011;56298;49.246;9.410;2023-07-29T14:14:21;3.33;;;1.37;;
69185;SDS011;56298;49.246;9.410;2023-07-29T14:16:46;4.20;;;1.37;;
69185;SDS011;56298;49.246;9.410;2023-07-29T14:19:12;3.63;;;1.23;;
69185;SDS011;56298;49.246;9.410;2023-07-29T14:21:37;4.07;;;1.37;;
69185;SDS011;56298;49.246;9.410;2023-07-29T14:24:03;4.03;;;1.37;;
69185;SDS011;56298;49.246;9.410;2023-07-29T14:26:28;4.00;;;1.40;;
69185;SDS011;56298;49.246;9.410;2023-07-29T14:28:53;4.80;;;1.47;;
69185;SDS011;56298;49.246;9.410;2023-07-29T14:31:18;3.40;;;1.37;;
69185;SDS011;56298;49.246;9.410;2023-07-29T14:33:44;6.00;;;1.50;;
69185;SDS011;56298;49.246;9.410;2023-07-29T14:36:09;4.90;;;1.30;;
69185;SDS011;56298;49.246;9.410;2023-07-29T14:38:35;3.77;;;1.20;;
69185;SDS011;56298;49.246;9.410;2023-07-29T14:41:01;4.10;;;1.35;;
69185;SDS011;56298;49.246;9.410;2023-07-29T14:43:27;4.90;;;1.27;;
69185;SDS011;56298;49.246;9.410;2023-07-29T14:45:52;4.10;;;1.35;;
69185;SDS011;56298;49.246;9.410;2023-07-29T14:48:17;3.73;;;1.30;;
69185;SDS011;56298;49.246;9.410;2023-07-29T14:50:43;5.20;;;1.43;;
69185;SDS011;56298;49.246;9.410;2023-07-29T14:53:09;4.00;;;1.50;;
69185;SDS011;56298;49.246;9.410;2023-07-29T14:55:35;5.03;;;1.50;;
69185;SDS011;56298;49.246;9.410;2023-07-29T14:58:00;4.10;;;1.50;;
69185;SDS011;56298;49.246;9.410;2023-07-29T15:00:25;5.20;;;1.70;;
69185;SDS011;56298;49.246;9.410;2023-07-29T15:02:50;4.35;;;1.42;;
69185;SDS011;56298;49.246;9.410;2023-07-29T15:05:16;3.40;;;1.30;;
69185;SDS011;56298;49.246;9.410;2023-07-29T15:07:41;3.50;;;1.30;;
69185;SDS011;56298;49.246;9.410;2023-07-29T15:10:06;3.93;;;1.60;;
69185;SDS011;56298;49.246;9.410;2023-07-29T15:12:32;4.73;;;1.50;;
69185;SDS011;56298;49.246;9.410;2023-07-29T15:14:57;3.40;;;1.30;;